createdAt,value
2023-02-17T00:00:19.376Z,93.35
2023-02-17T00:01:19.332Z,93.25
2023-02-17T00:02:26.696Z,93.15
2023-02-17T00:03:26.676Z,93.15
2023-02-17T00:04:26.862Z,93.25
2023-02-17T00:05:26.612Z,93.25
2023-02-17T00:06:26.308Z,93.35
2023-02-17T00:07:26.798Z,93.35
2023-02-17T00:08:19.255Z,93.25
2023-02-17T00:09:19.266Z,93.25
2023-02-17T00:10:19.253Z,93.25
2023-02-17T00:11:19.229Z,93.25
2023-02-17T00:12:19.237Z,93.35
2023-02-17T00:13:19.209Z,93.45
2023-02-17T00:14:19.221Z,93.45
2023-02-17T00:15:19.197Z,93.35
2023-02-17T00:16:19.218Z,93.35
2023-02-17T00:17:19.167Z,93.45
2023-02-17T00:18:19.159Z,93.55
2023-02-17T00:19:20.868Z,93.45
2023-02-17T00:20:19.127Z,93.45
2023-02-17T00:21:19.132Z,93.45
2023-02-17T00:22:19.117Z,93.45
2023-02-17T00:23:19.092Z,93.55
2023-02-17T00:24:19.101Z,93.55
2023-02-17T00:25:19.066Z,93.55
2023-02-17T00:26:19.079Z,93.55
2023-02-17T00:27:19.058Z,93.66
2023-02-17T00:28:19.330Z,93.66
2023-02-17T00:29:19.072Z,93.66
2023-02-17T00:30:19.058Z,93.76
2023-02-17T00:31:19.095Z,93.76
2023-02-17T00:32:19.029Z,93.76
2023-02-17T00:33:19.015Z,93.76
2023-02-17T00:34:18.987Z,93.76
2023-02-17T00:35:18.964Z,93.76
2023-02-17T00:36:18.966Z,93.76
2023-02-17T00:37:18.967Z,93.66
2023-02-17T00:38:18.957Z,93.66
2023-02-17T00:39:18.953Z,93.55
2023-02-17T00:40:18.920Z,93.55
2023-02-17T00:41:18.951Z,93.55
2023-02-17T00:42:18.915Z,93.55
2023-02-17T00:43:18.886Z,93.55
2023-02-17T00:44:18.885Z,93.55
2023-02-17T00:45:18.856Z,93.45
2023-02-17T00:46:18.891Z,93.55
2023-02-17T00:47:18.850Z,93.55
2023-02-17T00:48:18.912Z,93.55
2023-02-17T00:49:18.822Z,93.55
2023-02-17T00:50:18.810Z,93.45
2023-02-17T00:51:19.089Z,93.35
2023-02-17T00:52:18.937Z,93.35
2023-02-17T00:53:19.072Z,93.35
2023-02-17T00:54:18.766Z,93.25
2023-02-17T00:55:18.750Z,93.20
2023-02-17T00:56:19.041Z,93.10
2023-02-17T00:57:18.738Z,93.00
2023-02-17T00:58:18.708Z,93.00
2023-02-17T00:59:18.730Z,93.00
2023-02-17T01:00:18.708Z,93.00
2023-02-17T01:01:18.753Z,93.00
2023-02-17T01:02:18.699Z,92.90
2023-02-17T01:03:18.665Z,92.79
2023-02-17T01:04:18.650Z,92.69
2023-02-17T01:05:18.628Z,92.69
2023-02-17T01:06:18.618Z,92.59
2023-02-17T01:07:22.613Z,92.49
2023-02-17T01:08:18.601Z,92.49
2023-02-17T01:09:18.623Z,92.49
2023-02-17T01:10:18.591Z,92.49
2023-02-17T01:11:18.607Z,92.49
2023-02-17T01:12:18.565Z,92.49
2023-02-17T01:13:18.571Z,92.49
2023-02-17T01:14:18.542Z,92.49
2023-02-17T01:15:18.536Z,92.59
2023-02-17T01:16:18.558Z,92.59
2023-02-17T01:17:18.538Z,92.69
2023-02-17T01:18:18.504Z,92.79
2023-02-17T01:19:18.529Z,92.90
2023-02-17T01:20:18.480Z,93.00
2023-02-17T01:21:18.481Z,93.10
2023-02-17T01:22:18.460Z,93.00
2023-02-17T01:23:18.471Z,93.00
2023-02-17T01:24:18.450Z,93.00
2023-02-17T01:25:18.432Z,93.04
2023-02-17T01:26:18.422Z,93.04
2023-02-17T01:27:18.403Z,93.15
2023-02-17T01:28:18.414Z,93.15
2023-02-17T01:29:18.388Z,93.15
2023-02-17T01:30:18.420Z,93.15
2023-02-17T01:31:18.484Z,93.15
2023-02-17T01:32:18.370Z,93.15
2023-02-17T01:33:18.322Z,93.00
2023-02-17T01:34:18.383Z,93.15
2023-02-17T01:35:18.314Z,93.04
2023-02-17T01:36:25.325Z,93.04
2023-02-17T01:37:26.141Z,93.00
2023-02-17T01:38:26.293Z,93.00
2023-02-17T01:39:25.277Z,93.00
2023-02-17T01:40:26.578Z,93.10
2023-02-17T01:41:18.228Z,93.10
2023-02-17T01:42:25.274Z,93.15
2023-02-17T01:43:25.743Z,93.10
2023-02-17T01:44:18.199Z,93.15
2023-02-17T01:45:18.196Z,93.15
2023-02-17T01:46:18.202Z,93.15
2023-02-17T01:47:18.193Z,93.20
2023-02-17T01:48:18.166Z,93.35
2023-02-17T01:49:18.164Z,93.35
2023-02-17T01:50:18.136Z,93.35
2023-02-17T01:51:18.165Z,93.35
2023-02-17T01:52:18.124Z,93.45
2023-02-17T01:53:18.144Z,93.35
2023-02-17T01:54:18.096Z,93.41
2023-02-17T01:55:18.089Z,93.30
2023-02-17T01:56:18.072Z,93.20
2023-02-17T01:57:18.076Z,93.10
2023-02-17T01:58:18.033Z,93.10
2023-02-17T01:59:18.050Z,93.00
2023-02-17T02:00:18.030Z,93.10
2023-02-17T02:01:18.013Z,93.10
2023-02-17T02:02:18.123Z,93.10
2023-02-17T02:03:18.001Z,93.10
2023-02-17T02:04:18.321Z,93.10
2023-02-17T02:05:17.974Z,93.10
2023-02-17T02:06:17.945Z,93.10
2023-02-17T02:07:17.953Z,93.00
2023-02-17T02:08:17.945Z,93.00
2023-02-17T02:09:17.950Z,93.00
2023-02-17T02:10:17.920Z,93.00
2023-02-17T02:11:17.912Z,93.00
2023-02-17T02:12:18.159Z,93.10
2023-02-17T02:13:17.973Z,93.10
2023-02-17T02:14:17.885Z,93.20
2023-02-17T02:15:17.873Z,93.30
2023-02-17T02:16:17.863Z,93.41
2023-02-17T02:17:17.866Z,93.30
2023-02-17T02:18:17.833Z,93.30
2023-02-17T02:19:17.834Z,93.20
2023-02-17T02:20:17.799Z,93.20
2023-02-17T02:21:17.813Z,93.20
2023-02-17T02:22:17.786Z,93.10
2023-02-17T02:23:17.784Z,93.10
2023-02-17T02:24:20.498Z,93.00
2023-02-17T02:25:17.745Z,93.00
2023-02-17T02:26:17.745Z,93.10
2023-02-17T02:27:17.734Z,93.10
2023-02-17T02:28:17.781Z,93.10
2023-02-17T02:29:17.736Z,93.10
2023-02-17T02:30:17.774Z,93.00
2023-02-17T02:31:17.784Z,93.00
2023-02-17T02:32:17.689Z,92.90
2023-02-17T02:33:17.673Z,92.90
2023-02-17T02:34:17.932Z,93.00
2023-02-17T02:35:17.657Z,93.10
2023-02-17T02:36:17.664Z,93.00
2023-02-17T02:37:17.639Z,93.10
2023-02-17T02:38:17.607Z,93.20
2023-02-17T02:39:17.623Z,93.20
2023-02-17T02:40:17.618Z,93.20
2023-02-17T02:41:17.673Z,93.20
2023-02-17T02:42:22.728Z,93.20
2023-02-17T02:43:20.478Z,93.20
2023-02-17T02:44:17.536Z,93.20
2023-02-17T02:45:17.533Z,93.20
2023-02-17T02:46:17.524Z,93.10
2023-02-17T02:47:17.520Z,93.10
2023-02-17T02:48:17.519Z,93.10
2023-02-17T02:49:17.519Z,92.65
2023-02-17T02:50:17.757Z,92.65
2023-02-17T02:51:17.465Z,92.65
2023-02-17T02:52:17.449Z,92.65
2023-02-17T02:53:17.454Z,92.65
2023-02-17T02:54:17.437Z,92.65
2023-02-17T02:55:17.419Z,92.55
2023-02-17T02:56:17.410Z,92.65
2023-02-17T02:57:17.412Z,92.55
2023-02-17T02:58:17.409Z,92.55
2023-02-17T02:59:17.388Z,92.24
2023-02-17T03:00:17.671Z,91.93
2023-02-17T03:01:17.437Z,91.83
2023-02-17T03:02:17.354Z,91.38
2023-02-17T03:03:17.358Z,90.97
2023-02-17T03:04:17.386Z,90.41
2023-02-17T03:05:17.324Z,90.00
2023-02-17T03:06:17.298Z,89.70
2023-02-17T03:07:17.277Z,89.35
2023-02-17T03:08:24.604Z,89.15
2023-02-17T03:09:24.286Z,88.84
2023-02-17T03:10:24.268Z,88.33
2023-02-17T03:11:24.271Z,87.98
2023-02-17T03:12:24.760Z,87.98
2023-02-17T03:13:24.759Z,87.98
2023-02-17T03:14:17.235Z,87.98
2023-02-17T03:15:17.199Z,87.98
2023-02-17T03:16:17.195Z,87.88
2023-02-17T03:17:17.159Z,87.77
2023-02-17T03:18:17.189Z,87.77
2023-02-17T03:19:17.213Z,87.88
2023-02-17T03:20:17.163Z,87.92
2023-02-17T03:21:17.257Z,87.92
2023-02-17T03:22:17.121Z,88.12
2023-02-17T03:23:17.132Z,87.77
2023-02-17T03:24:17.126Z,87.37
2023-02-17T03:25:17.122Z,87.67
2023-02-17T03:26:17.071Z,87.67
2023-02-17T03:27:17.076Z,87.61
2023-02-17T03:28:17.081Z,87.71
2023-02-17T03:29:17.059Z,87.82
2023-02-17T03:30:17.076Z,87.92
2023-02-17T03:31:17.147Z,87.92
2023-02-17T03:32:17.105Z,88.02
2023-02-17T03:33:16.994Z,88.12
2023-02-17T03:34:17.036Z,88.23
2023-02-17T03:35:16.972Z,88.64
2023-02-17T03:36:16.987Z,88.88
2023-02-17T03:37:16.949Z,89.09
2023-02-17T03:38:16.978Z,89.29
2023-02-17T03:39:16.947Z,89.59
2023-02-17T03:40:18.632Z,89.84
2023-02-17T03:41:16.904Z,90.15
2023-02-17T03:42:17.394Z,90.25
2023-02-17T03:43:17.949Z,90.45
2023-02-17T03:44:16.890Z,90.60
2023-02-17T03:45:16.878Z,90.81
2023-02-17T03:46:16.918Z,91.01
2023-02-17T03:47:16.844Z,91.22
2023-02-17T03:48:16.828Z,91.31
2023-02-17T03:49:16.830Z,91.42
2023-02-17T03:50:16.828Z,91.67
2023-02-17T03:51:16.794Z,91.77
2023-02-17T03:52:21.978Z,91.87
2023-02-17T03:53:16.756Z,92.08
2023-02-17T03:54:16.773Z,92.18
2023-02-17T03:55:16.766Z,92.38
2023-02-17T03:56:16.781Z,92.49
2023-02-17T03:57:16.739Z,92.53
2023-02-17T03:58:16.711Z,92.74
2023-02-17T03:59:16.754Z,92.94
2023-02-17T04:00:16.741Z,93.15
2023-02-17T04:01:16.790Z,93.35
2023-02-17T04:02:17.023Z,93.45
2023-02-17T04:03:16.924Z,93.66
2023-02-17T04:04:16.701Z,93.76
2023-02-17T04:05:16.662Z,93.86
2023-02-17T04:06:16.632Z,94.01
2023-02-17T04:07:16.625Z,94.11
2023-02-17T04:08:16.615Z,94.21
2023-02-17T04:09:16.603Z,94.42
2023-02-17T04:10:16.595Z,94.52
2023-02-17T04:11:16.674Z,94.62
2023-02-17T04:12:19.391Z,94.62
2023-02-17T04:13:16.564Z,94.83
2023-02-17T04:14:16.564Z,94.83
2023-02-17T04:15:16.542Z,94.93
2023-02-17T04:16:16.503Z,94.83
2023-02-17T04:17:16.504Z,94.83
2023-02-17T04:18:16.484Z,94.83
2023-02-17T04:19:16.479Z,94.93
2023-02-17T04:20:16.473Z,94.93
2023-02-17T04:21:16.514Z,94.93
2023-02-17T04:22:16.504Z,95.03
2023-02-17T04:23:16.436Z,95.03
2023-02-17T04:24:16.466Z,95.03
2023-02-17T04:25:16.408Z,95.14
2023-02-17T04:26:16.402Z,95.28
2023-02-17T04:27:16.479Z,95.28
2023-02-17T04:28:16.372Z,95.28
2023-02-17T04:29:16.395Z,95.39
2023-02-17T04:30:16.432Z,95.49
2023-02-17T04:31:21.376Z,95.49
2023-02-17T04:32:16.348Z,95.49
2023-02-17T04:33:16.338Z,95.59
2023-02-17T04:34:16.303Z,95.59
2023-02-17T04:35:16.334Z,95.59
2023-02-17T04:36:16.273Z,95.54
2023-02-17T04:37:16.297Z,95.44
2023-02-17T04:38:16.258Z,95.44
2023-02-17T04:39:16.275Z,95.44
2023-02-17T04:40:16.265Z,95.44
2023-02-17T04:41:16.256Z,95.44
2023-02-17T04:42:23.220Z,95.34
2023-02-17T04:43:24.210Z,95.24
2023-02-17T04:44:23.224Z,95.14
2023-02-17T04:45:23.221Z,95.03
2023-02-17T04:46:23.303Z,95.03
2023-02-17T04:47:16.167Z,94.78
2023-02-17T04:48:16.153Z,94.68
2023-02-17T04:49:16.153Z,94.58
2023-02-17T04:50:16.125Z,94.58
2023-02-17T04:51:16.145Z,94.48
2023-02-17T04:52:16.114Z,94.37
2023-02-17T04:53:16.102Z,94.42
2023-02-17T04:54:16.096Z,94.52
2023-02-17T04:55:16.345Z,94.52
2023-02-17T04:56:16.067Z,94.52
2023-02-17T04:57:16.079Z,94.62
2023-02-17T04:58:16.045Z,94.73
2023-02-17T04:59:16.047Z,94.93
2023-02-17T05:00:16.024Z,94.93
2023-02-17T05:01:16.061Z,95.03
2023-02-17T05:02:16.015Z,95.03
2023-02-17T05:03:16.020Z,95.14
2023-02-17T05:04:15.976Z,95.24
2023-02-17T05:05:15.973Z,95.34
2023-02-17T05:06:15.959Z,95.34
2023-02-17T05:07:15.991Z,95.34
2023-02-17T05:08:15.952Z,95.44
2023-02-17T05:09:15.922Z,95.34
2023-02-17T05:10:15.917Z,95.34
2023-02-17T05:11:15.920Z,95.34
2023-02-17T05:12:16.196Z,95.34
2023-02-17T05:13:15.878Z,95.34
2023-02-17T05:14:15.880Z,95.34
2023-02-17T05:15:15.845Z,95.34
2023-02-17T05:16:15.885Z,95.39
2023-02-17T05:17:15.832Z,95.39
2023-02-17T05:18:15.847Z,95.39
2023-02-17T05:19:15.820Z,95.39
2023-02-17T05:20:15.811Z,95.49
2023-02-17T05:21:15.802Z,95.49
2023-02-17T05:22:15.782Z,95.49
2023-02-17T05:23:15.772Z,95.44
2023-02-17T05:24:15.771Z,95.34
2023-02-17T05:25:15.771Z,95.24
2023-02-17T05:26:15.748Z,95.03
2023-02-17T05:27:15.720Z,95.03
2023-02-17T05:28:15.717Z,95.03
2023-02-17T05:29:15.748Z,94.93
2023-02-17T05:30:15.729Z,94.93
2023-02-17T05:31:16.072Z,94.93
2023-02-17T05:32:15.672Z,94.83
2023-02-17T05:33:15.670Z,94.83
2023-02-17T05:34:15.640Z,94.83
2023-02-17T05:35:15.654Z,94.83
2023-02-17T05:36:15.655Z,94.98
2023-02-17T05:37:15.601Z,94.98
2023-02-17T05:38:15.609Z,95.07
2023-02-17T05:39:15.581Z,95.07
2023-02-17T05:40:15.593Z,95.07
2023-02-17T05:41:15.545Z,95.18
2023-02-17T05:42:15.576Z,95.18
2023-02-17T05:43:15.539Z,95.18
2023-02-17T05:44:15.540Z,95.18
2023-02-17T05:45:15.531Z,95.18
2023-02-17T05:46:15.524Z,95.14
2023-02-17T05:47:15.502Z,95.14
2023-02-17T05:48:15.477Z,95.03
2023-02-17T05:49:15.501Z,95.03
2023-02-17T05:50:15.470Z,95.03
2023-02-17T05:51:15.452Z,94.93
2023-02-17T05:52:15.473Z,94.83
2023-02-17T05:53:15.417Z,94.83
2023-02-17T05:54:15.425Z,94.83
2023-02-17T05:55:15.425Z,94.62
2023-02-17T05:56:15.396Z,94.62
2023-02-17T05:57:15.409Z,94.52
2023-02-17T05:58:15.370Z,94.42
2023-02-17T05:59:15.378Z,94.42
2023-02-17T06:00:15.356Z,94.32
2023-02-17T06:01:15.346Z,94.42
2023-02-17T06:02:15.369Z,94.42
2023-02-17T06:03:15.349Z,94.32
2023-02-17T06:04:15.353Z,94.42
2023-02-17T06:05:15.453Z,94.32
2023-02-17T06:06:15.300Z,94.21
2023-02-17T06:07:15.270Z,94.21
2023-02-17T06:08:15.293Z,94.21
2023-02-17T06:09:15.312Z,94.21
2023-02-17T06:10:15.252Z,94.21
2023-02-17T06:11:15.277Z,94.21
2023-02-17T06:12:15.241Z,94.11
2023-02-17T06:13:15.237Z,94.11
2023-02-17T06:14:22.762Z,94.21
2023-02-17T06:15:22.208Z,94.11
2023-02-17T06:16:15.220Z,94.11
2023-02-17T06:17:22.717Z,94.21
2023-02-17T06:18:22.428Z,94.21
2023-02-17T06:19:22.780Z,94.21
2023-02-17T06:20:15.133Z,94.21
2023-02-17T06:21:15.134Z,94.21
2023-02-17T06:22:16.024Z,94.32
2023-02-17T06:23:15.121Z,94.21
2023-02-17T06:24:15.109Z,94.21
2023-02-17T06:25:15.080Z,94.21
2023-02-17T06:26:15.083Z,94.21
2023-02-17T06:27:15.076Z,94.21
2023-02-17T06:28:15.044Z,94.21
2023-02-17T06:29:15.034Z,94.21
2023-02-17T06:30:15.099Z,94.32
2023-02-17T06:31:15.279Z,94.32
2023-02-17T06:32:15.022Z,94.32
2023-02-17T06:33:14.997Z,94.32
2023-02-17T06:34:15.006Z,94.32
2023-02-17T06:35:14.991Z,94.32
2023-02-17T06:36:15.230Z,94.32
2023-02-17T06:37:14.954Z,94.42
2023-02-17T06:38:14.958Z,94.42
2023-02-17T06:39:14.920Z,94.42
2023-02-17T06:40:14.931Z,94.32
2023-02-17T06:41:14.907Z,94.11
2023-02-17T06:42:14.890Z,94.01
2023-02-17T06:43:14.888Z,93.86
2023-02-17T06:44:14.861Z,93.76
2023-02-17T06:45:14.880Z,93.55
2023-02-17T06:46:14.907Z,93.35
2023-02-17T06:47:14.856Z,93.25
2023-02-17T06:48:15.124Z,93.25
2023-02-17T06:49:14.817Z,93.15
2023-02-17T06:50:14.815Z,93.15
2023-02-17T06:51:14.788Z,93.15
2023-02-17T06:52:14.771Z,93.04
2023-02-17T06:53:14.795Z,93.04
2023-02-17T06:54:14.751Z,92.94
2023-02-17T06:55:14.752Z,93.00
2023-02-17T06:56:14.726Z,92.94
2023-02-17T06:57:14.724Z,92.83
2023-02-17T06:58:14.720Z,92.74
2023-02-17T06:59:14.696Z,92.69
2023-02-17T07:00:14.670Z,92.74
2023-02-17T07:01:14.692Z,92.79
2023-02-17T07:02:14.757Z,92.79
2023-02-17T07:03:14.755Z,92.69
2023-02-17T07:04:14.934Z,92.69
2023-02-17T07:05:14.682Z,92.69
2023-02-17T07:06:14.616Z,92.79
2023-02-17T07:07:14.917Z,92.79
2023-02-17T07:08:14.618Z,92.79
2023-02-17T07:09:14.590Z,92.74
2023-02-17T07:10:14.603Z,92.69
2023-02-17T07:11:14.590Z,92.79
2023-02-17T07:12:14.565Z,92.90
2023-02-17T07:13:14.561Z,92.90
2023-02-17T07:14:14.534Z,92.79
2023-02-17T07:15:14.539Z,92.90
2023-02-17T07:16:14.551Z,92.90
2023-02-17T07:17:14.477Z,93.00
2023-02-17T07:18:14.501Z,92.90
2023-02-17T07:19:14.482Z,92.90
2023-02-17T07:20:14.470Z,92.90
2023-02-17T07:21:14.447Z,93.00
2023-02-17T07:22:14.473Z,93.10
2023-02-17T07:23:14.433Z,93.20
2023-02-17T07:24:14.423Z,93.20
2023-02-17T07:25:14.421Z,93.30
2023-02-17T07:26:15.441Z,93.20
2023-02-17T07:27:14.401Z,93.20
2023-02-17T07:28:14.397Z,93.10
2023-02-17T07:29:14.368Z,93.10
2023-02-17T07:30:14.421Z,93.20
2023-02-17T07:31:14.431Z,93.20
2023-02-17T07:32:14.340Z,93.20
2023-02-17T07:33:14.326Z,93.20
2023-02-17T07:34:14.313Z,93.10
2023-02-17T07:35:14.319Z,93.10
2023-02-17T07:36:14.294Z,93.10
2023-02-17T07:37:14.274Z,93.10
2023-02-17T07:38:14.264Z,93.30
2023-02-17T07:39:14.262Z,93.41
2023-02-17T07:40:14.259Z,93.41
2023-02-17T07:41:14.223Z,93.41
2023-02-17T07:42:14.225Z,93.41
2023-02-17T07:43:14.235Z,93.41
2023-02-17T07:44:14.179Z,93.51
2023-02-17T07:45:14.211Z,93.41
2023-02-17T07:46:14.251Z,93.41
2023-02-17T07:47:14.154Z,93.37
2023-02-17T07:48:14.140Z,93.37
2023-02-17T07:49:22.431Z,93.37
2023-02-17T07:50:21.402Z,93.37
2023-02-17T07:51:21.139Z,93.26
2023-02-17T07:52:21.124Z,93.16
2023-02-17T07:53:21.137Z,93.26
2023-02-17T07:54:16.928Z,93.12
2023-02-17T07:55:14.095Z,93.01
2023-02-17T07:56:14.051Z,93.01
2023-02-17T07:57:14.046Z,93.01
2023-02-17T07:58:14.043Z,93.01
2023-02-17T07:59:14.030Z,92.91
2023-02-17T08:00:14.009Z,92.91
2023-02-17T08:01:14.014Z,92.91
2023-02-17T08:02:14.048Z,93.01
2023-02-17T08:03:13.966Z,93.07
2023-02-17T08:04:13.975Z,93.18
2023-02-17T08:05:13.988Z,93.28
2023-02-17T08:06:13.938Z,93.28
2023-02-17T08:07:13.967Z,93.38
2023-02-17T08:08:13.908Z,93.28
2023-02-17T08:09:13.899Z,93.18
2023-02-17T08:10:13.907Z,92.83
2023-02-17T08:11:13.900Z,92.62
2023-02-17T08:12:13.873Z,92.62
2023-02-17T08:13:13.866Z,92.32
2023-02-17T08:14:13.905Z,92.07
2023-02-17T08:15:13.845Z,91.76
2023-02-17T08:16:13.849Z,91.56
2023-02-17T08:17:13.853Z,91.56
2023-02-17T08:18:13.812Z,91.41
2023-02-17T08:19:13.819Z,91.11
2023-02-17T08:20:13.811Z,91.11
2023-02-17T08:21:13.788Z,90.90
2023-02-17T08:22:13.771Z,90.80
2023-02-17T08:23:13.761Z,90.66
2023-02-17T08:24:13.734Z,90.45
2023-02-17T08:25:13.761Z,90.35
2023-02-17T08:26:13.748Z,90.25
2023-02-17T08:27:13.719Z,90.25
2023-02-17T08:28:13.721Z,90.45
2023-02-17T08:29:13.715Z,90.14
2023-02-17T08:30:13.740Z,90.04
2023-02-17T08:31:13.780Z,89.79
2023-02-17T08:32:16.515Z,89.79
2023-02-17T08:33:17.470Z,89.59
2023-02-17T08:34:15.344Z,89.49
2023-02-17T08:35:13.614Z,89.18
2023-02-17T08:36:13.622Z,89.18
2023-02-17T08:37:13.583Z,89.18
2023-02-17T08:38:13.581Z,89.08
2023-02-17T08:39:13.581Z,89.04
2023-02-17T08:40:13.566Z,88.93
2023-02-17T08:41:13.542Z,88.73
2023-02-17T08:42:13.523Z,88.73
2023-02-17T08:43:13.594Z,88.53
2023-02-17T08:44:13.527Z,88.49
2023-02-17T08:45:13.591Z,88.14
2023-02-17T08:46:13.528Z,88.04
2023-02-17T08:47:13.487Z,87.59
2023-02-17T08:48:13.523Z,87.49
2023-02-17T08:49:13.535Z,87.18
2023-02-17T08:50:13.457Z,86.74
2023-02-17T08:51:13.438Z,86.43
2023-02-17T08:52:13.520Z,86.22
2023-02-17T08:53:13.435Z,85.78
2023-02-17T08:54:13.410Z,85.47
2023-02-17T08:55:13.450Z,85.37
2023-02-17T08:56:13.377Z,85.17
2023-02-17T08:57:13.374Z,84.97
2023-02-17T08:58:13.440Z,84.92
2023-02-17T08:59:13.334Z,85.03
2023-02-17T09:00:13.350Z,84.82
2023-02-17T09:01:13.326Z,84.82
2023-02-17T09:02:13.306Z,84.42
2023-02-17T09:03:13.349Z,84.62
2023-02-17T09:04:13.293Z,84.52
2023-02-17T09:05:13.308Z,84.42
2023-02-17T09:06:13.267Z,84.31
2023-02-17T09:07:13.271Z,84.21
2023-02-17T09:08:13.239Z,84.31
2023-02-17T09:09:13.249Z,84.42
2023-02-17T09:10:13.237Z,84.38
2023-02-17T09:11:13.209Z,84.07
2023-02-17T09:12:13.237Z,83.76
2023-02-17T09:13:13.284Z,83.67
2023-02-17T09:14:13.179Z,83.67
2023-02-17T09:15:13.173Z,83.76
2023-02-17T09:16:13.376Z,83.87
2023-02-17T09:17:13.169Z,83.76
2023-02-17T09:18:13.143Z,83.87
2023-02-17T09:19:13.122Z,83.36
2023-02-17T09:20:24.393Z,83.01
2023-02-17T09:21:14.080Z,82.92
2023-02-17T09:22:29.647Z,82.81
2023-02-17T09:24:24.099Z,83.22
2023-02-17T09:25:32.132Z,83.12
2023-02-17T09:26:24.096Z,83.12
2023-02-17T09:27:24.112Z,82.81
2023-02-17T09:28:24.100Z,82.61
2023-02-17T09:29:24.060Z,82.92
2023-02-17T09:31:35.459Z,82.61
2023-02-17T09:32:34.674Z,82.78
2023-02-17T09:33:34.644Z,82.67
2023-02-17T09:34:34.935Z,82.78
2023-02-17T09:35:46.092Z,82.31
2023-02-17T09:36:34.603Z,81.86
2023-02-17T09:37:34.605Z,81.66
2023-02-17T09:38:34.621Z,81.56
2023-02-17T09:39:34.660Z,81.52
2023-02-17T09:40:34.585Z,81.11
2023-02-17T09:41:34.601Z,80.91
2023-02-17T09:42:34.578Z,80.71
2023-02-17T09:43:34.574Z,80.71
2023-02-17T09:44:36.378Z,80.50
2023-02-17T09:45:34.681Z,80.60
2023-02-17T09:46:34.590Z,80.40
2023-02-17T09:47:34.487Z,80.50
2023-02-17T09:48:34.606Z,79.75
2023-02-17T09:49:34.466Z,79.85
2023-02-17T09:50:34.537Z,79.75
2023-02-17T09:51:34.456Z,79.65
2023-02-17T09:52:34.456Z,79.35
2023-02-17T09:53:34.419Z,79.35
2023-02-17T09:54:34.451Z,79.21
2023-02-17T09:55:34.468Z,78.91
2023-02-17T09:56:34.415Z,79.00
2023-02-17T09:57:34.392Z,78.60
2023-02-17T09:58:34.378Z,78.66
2023-02-17T09:59:34.344Z,78.46
2023-02-17T10:00:34.435Z,78.36
2023-02-17T10:01:34.338Z,77.86
2023-02-17T10:02:34.666Z,78.16
2023-02-17T10:03:34.366Z,77.65
2023-02-17T10:04:34.353Z,77.65
2023-02-17T10:05:34.317Z,77.75
2023-02-17T10:06:34.285Z,77.72
2023-02-17T10:07:34.341Z,77.61
2023-02-17T10:08:34.300Z,77.55
2023-02-17T10:09:43.771Z,77.34
2023-02-17T10:10:34.511Z,77.61
2023-02-17T10:11:34.267Z,77.41
2023-02-17T10:12:34.206Z,77.51
2023-02-17T10:13:34.214Z,76.90
2023-02-17T10:14:34.204Z,77.41
2023-02-17T10:15:34.200Z,77.31
2023-02-17T10:16:34.288Z,77.21
2023-02-17T10:17:34.172Z,77.31
2023-02-17T10:18:34.138Z,76.80
2023-02-17T10:19:34.131Z,76.70
2023-02-17T10:20:36.875Z,76.60
2023-02-17T10:21:34.212Z,76.77
2023-02-17T10:22:34.100Z,76.36
2023-02-17T10:23:34.142Z,76.16
2023-02-17T10:24:34.124Z,75.96
2023-02-17T10:25:34.078Z,75.65
2023-02-17T10:26:34.041Z,75.82
2023-02-17T10:27:34.120Z,75.62
2023-02-17T10:28:34.012Z,75.21
2023-02-17T10:29:34.048Z,75.11
2023-02-17T10:30:34.087Z,75.11
2023-02-17T10:31:34.081Z,75.31
2023-02-17T10:32:34.171Z,75.01
2023-02-17T10:33:34.016Z,75.31
2023-02-17T10:34:33.950Z,75.21
2023-02-17T10:35:34.018Z,74.91
2023-02-17T10:36:34.222Z,74.77
2023-02-17T10:37:33.935Z,74.47
2023-02-17T10:38:33.909Z,74.77
2023-02-17T10:39:33.926Z,74.87
2023-02-17T10:40:33.893Z,74.87
2023-02-17T10:41:33.893Z,74.63
2023-02-17T10:42:33.920Z,74.33
2023-02-17T10:43:33.856Z,74.03
2023-02-17T10:44:33.859Z,74.03
2023-02-17T10:45:33.893Z,74.03
2023-02-17T10:46:33.847Z,74.23
2023-02-17T10:47:33.804Z,73.93
2023-02-17T10:48:33.799Z,73.83
2023-02-17T10:49:33.781Z,73.86
2023-02-17T10:50:33.792Z,74.27
2023-02-17T10:51:33.764Z,74.23
2023-02-17T10:52:33.743Z,74.27
2023-02-17T10:53:33.743Z,74.16
2023-02-17T10:54:33.726Z,74.37
2023-02-17T10:55:33.763Z,74.57
2023-02-17T10:56:33.730Z,74.57
2023-02-17T10:57:33.696Z,74.07
2023-02-17T10:58:33.684Z,74.13
2023-02-17T10:59:33.669Z,74.23
2023-02-17T11:00:33.697Z,73.72
2023-02-17T11:01:33.660Z,73.69
2023-02-17T11:02:33.655Z,73.72
2023-02-17T11:03:33.639Z,73.72
2023-02-17T11:04:33.630Z,73.59
2023-02-17T11:05:33.610Z,73.39
2023-02-17T11:06:33.645Z,73.49
2023-02-17T11:07:33.590Z,73.39
2023-02-17T11:08:33.578Z,73.19
2023-02-17T11:09:33.558Z,73.28
2023-02-17T11:10:33.558Z,72.85
2023-02-17T11:11:33.559Z,72.95
2023-02-17T11:12:33.528Z,73.05
2023-02-17T11:13:33.510Z,72.41
2023-02-17T11:14:33.501Z,72.31
2023-02-17T11:15:33.510Z,72.44
2023-02-17T11:16:33.553Z,72.78
2023-02-17T11:17:37.563Z,73.15
2023-02-17T11:18:33.461Z,73.08
2023-02-17T11:19:33.442Z,73.25
2023-02-17T11:20:33.451Z,72.95
2023-02-17T11:21:33.476Z,73.15
2023-02-17T11:22:33.450Z,72.75
2023-02-17T11:23:33.404Z,73.15
2023-02-17T11:24:33.412Z,73.46
2023-02-17T11:25:33.401Z,73.35
2023-02-17T11:26:33.408Z,73.05
2023-02-17T11:27:33.384Z,73.11
2023-02-17T11:28:33.355Z,72.31
2023-02-17T11:29:33.347Z,72.75
2023-02-17T11:30:33.455Z,72.95
2023-02-17T11:31:33.466Z,72.95
2023-02-17T11:32:33.305Z,73.05
2023-02-17T11:33:33.297Z,73.11
2023-02-17T11:34:33.283Z,73.02
2023-02-17T11:35:33.305Z,72.71
2023-02-17T11:36:34.447Z,72.41
2023-02-17T11:37:33.270Z,73.05
2023-02-17T11:38:33.268Z,73.35
2023-02-17T11:39:33.247Z,73.35
2023-02-17T11:40:33.228Z,73.15
2023-02-17T11:41:33.262Z,73.22
2023-02-17T11:42:33.217Z,72.75
2023-02-17T11:43:33.193Z,73.15
2023-02-17T11:44:33.220Z,72.95
2023-02-17T11:45:33.201Z,73.15
2023-02-17T11:46:33.180Z,73.15
2023-02-17T11:47:33.191Z,73.25
2023-02-17T11:48:33.158Z,73.15
2023-02-17T11:49:37.067Z,73.46
2023-02-17T11:50:41.331Z,73.55
2023-02-17T11:51:34.117Z,73.55
2023-02-17T11:52:33.097Z,73.86
2023-02-17T11:53:33.099Z,73.46
2023-02-17T11:54:33.091Z,73.66
2023-02-17T11:55:33.101Z,73.66
2023-02-17T11:56:33.061Z,73.55
2023-02-17T11:57:33.068Z,73.55
2023-02-17T11:58:33.038Z,73.75
2023-02-17T11:59:33.745Z,73.35
2023-02-17T12:00:33.008Z,73.46
2023-02-17T12:01:33.016Z,73.75
2023-02-17T12:02:32.992Z,73.55
2023-02-17T12:03:34.239Z,73.66
2023-02-17T12:04:33.801Z,73.66
2023-02-17T12:05:32.942Z,73.75
2023-02-17T12:06:33.322Z,73.35
2023-02-17T12:07:32.967Z,73.66
2023-02-17T12:08:32.912Z,73.55
2023-02-17T12:09:32.900Z,73.25
2023-02-17T12:10:32.899Z,73.25
2023-02-17T12:11:32.884Z,73.15
2023-02-17T12:12:32.953Z,73.22
2023-02-17T12:13:32.889Z,73.11
2023-02-17T12:14:32.852Z,73.11
2023-02-17T12:15:32.852Z,72.81
2023-02-17T12:16:32.872Z,72.91
2023-02-17T12:17:32.915Z,72.91
2023-02-17T12:18:32.805Z,72.91
2023-02-17T12:19:33.126Z,72.81
2023-02-17T12:20:32.832Z,73.11
2023-02-17T12:21:32.771Z,72.71
2023-02-17T12:22:32.791Z,72.91
2023-02-17T12:23:32.759Z,73.02
2023-02-17T12:24:32.772Z,73.11
2023-02-17T12:25:32.742Z,73.22
2023-02-17T12:26:32.712Z,73.32
2023-02-17T12:27:32.750Z,73.15
2023-02-17T12:28:32.708Z,73.05
2023-02-17T12:29:32.705Z,72.75
2023-02-17T12:30:32.752Z,72.95
2023-02-17T12:31:32.736Z,73.02
2023-02-17T12:32:40.191Z,72.91
2023-02-17T12:33:40.676Z,72.81
2023-02-17T12:34:32.625Z,72.81
2023-02-17T12:35:32.925Z,72.58
2023-02-17T12:36:39.778Z,72.07
2023-02-17T12:37:39.630Z,72.17
2023-02-17T12:38:34.350Z,71.97
2023-02-17T12:39:32.581Z,71.87
2023-02-17T12:40:32.571Z,71.67
2023-02-17T12:41:32.561Z,71.53
2023-02-17T12:42:32.569Z,71.17
2023-02-17T12:43:32.595Z,71.47
2023-02-17T12:44:32.546Z,71.17
2023-02-17T12:45:32.546Z,71.26
2023-02-17T12:46:32.506Z,71.33
2023-02-17T12:47:33.235Z,71.33
2023-02-17T12:48:32.496Z,71.33
2023-02-17T12:49:32.788Z,71.13
2023-02-17T12:50:32.499Z,71.03
2023-02-17T12:51:32.481Z,70.93
2023-02-17T12:52:32.716Z,70.62
2023-02-17T12:53:32.776Z,70.56
2023-02-17T12:54:32.436Z,70.96